Terminal Aerodrome Forecast
Issued by NWS Sterling, VA

Current Version | Previous Version | Text Only | Print | Product List | Glossary Off
Versions: 1 2 3 4 5 6 7 8 9 10 11 12 13 14 15 16 17 18 19 20 21 22 23 24 25 26 27

000
FTUS41 KLWX 021737
TAFDCA
TAF
KDCA 021737Z 0218/0318 32005KT P6SM BKN130
     FM022200 30006KT P6SM VCTS BKN060CB
     FM030100 29004KT P6SM BKN050
     FM030300 29004KT P6SM SCT060
     FM031400 35004KT P6SM SCT250=

USA.gov is the U.S. government's official web portal to all federal, state and local government web resources and services.